createdAt,value
2023-05-04T00:00:37.929Z,48.38
2023-05-04T00:01:37.932Z,55.21
2023-05-04T00:02:38.002Z,51.74
2023-05-04T00:03:38.098Z,51.58
2023-05-04T00:04:37.921Z,57.05
2023-05-04T00:05:37.926Z,53.49
2023-05-04T00:06:37.890Z,60.53
2023-05-04T00:07:37.879Z,54.62
2023-05-04T00:08:37.867Z,58.28
2023-05-04T00:09:37.860Z,58.79
2023-05-04T00:10:38.785Z,55.68
2023-05-04T00:11:37.845Z,52.01
2023-05-04T00:12:37.962Z,57.17
2023-05-04T00:13:37.838Z,56.13
2023-05-04T00:14:37.827Z,54.25
2023-05-04T00:15:37.819Z,59.65
2023-05-04T00:16:37.849Z,50.75
2023-05-04T00:17:37.818Z,57.56
2023-05-04T00:18:37.797Z,52.76
2023-05-04T00:19:37.801Z,55.12
2023-05-04T00:20:37.777Z,59.44
2023-05-04T00:23:19.258Z,56.26
2023-05-04T00:24:20.343Z,58.18
2023-05-04T00:25:20.360Z,55.53
2023-05-04T00:26:20.328Z,51.78
2023-05-04T00:27:20.314Z,58.03
2023-05-04T00:28:20.305Z,54.16
2023-05-04T00:29:20.294Z,49.22
2023-05-04T00:30:20.298Z,47.94
2023-05-04T00:31:20.294Z,52.55
2023-05-04T00:32:20.279Z,47.32
2023-05-04T00:33:20.262Z,50.17
2023-05-04T00:34:20.257Z,57.17
2023-05-04T00:35:20.285Z,53.91
2023-05-04T00:36:20.274Z,54.63
2023-05-04T00:37:20.232Z,48.85
2023-05-04T00:38:20.231Z,49.66
2023-05-04T00:39:20.220Z,58.47
2023-05-04T00:40:20.206Z,48.39
2023-05-04T00:41:20.208Z,51.63
2023-05-04T00:42:20.189Z,57.81
2023-05-04T00:43:20.188Z,56.71
2023-05-04T00:44:20.183Z,51.51
2023-05-04T00:45:20.185Z,54.56
2023-05-04T00:46:20.174Z,56.45
2023-05-04T00:47:20.192Z,52.00
2023-05-04T00:48:20.142Z,60.14
2023-05-04T00:49:20.155Z,56.83
2023-05-04T00:50:20.136Z,53.86
2023-05-04T00:51:20.122Z,56.27
2023-05-04T00:52:20.711Z,58.97
2023-05-04T00:53:20.129Z,50.01
2023-05-04T00:54:20.109Z,55.20
2023-05-04T00:55:20.091Z,56.55
2023-05-04T00:56:20.081Z,58.82
2023-05-04T00:57:20.085Z,53.61
2023-05-04T00:58:20.081Z,50.11
2023-05-04T00:59:20.059Z,57.58
2023-05-04T01:00:20.052Z,53.01
2023-05-04T01:01:20.081Z,58.23
2023-05-04T01:02:20.095Z,49.51
2023-05-04T01:03:20.055Z,51.27
2023-05-04T01:04:20.021Z,56.01
2023-05-04T01:05:20.001Z,55.41
2023-05-04T01:06:21.711Z,56.19
2023-05-04T01:07:20.003Z,53.97
2023-05-04T01:08:20.002Z,51.05
2023-05-04T01:09:19.983Z,49.56
2023-05-04T01:10:19.996Z,60.46
2023-05-04T01:11:19.968Z,58.01
2023-05-04T01:12:19.973Z,54.75
2023-05-04T01:13:19.949Z,54.43
2023-05-04T01:14:19.950Z,56.67
2023-05-04T01:15:19.931Z,54.24
2023-05-04T01:16:19.935Z,50.47
2023-05-04T01:17:19.921Z,52.97
2023-05-04T01:18:19.923Z,53.60
2023-05-04T01:19:19.905Z,49.90
2023-05-04T01:20:19.910Z,50.11
2023-05-04T01:21:19.885Z,55.73
2023-05-04T01:22:19.883Z,51.07
2023-05-04T01:23:19.863Z,48.90
2023-05-04T01:24:19.862Z,49.23
2023-05-04T01:25:19.843Z,56.27
2023-05-04T01:26:19.845Z,51.07
2023-05-04T01:27:20.712Z,55.63
2023-05-04T01:28:19.848Z,49.18
2023-05-04T01:29:19.820Z,55.21
2023-05-04T01:30:19.806Z,54.09
2023-05-04T01:31:19.825Z,53.17
2023-05-04T01:32:19.800Z,50.96
2023-05-04T01:33:19.798Z,55.89
2023-05-04T01:34:20.708Z,49.70
2023-05-04T01:35:19.821Z,46.92
2023-05-04T01:36:19.831Z,54.06
2023-05-04T01:37:19.767Z,54.12
2023-05-04T01:38:20.711Z,51.87
2023-05-04T01:39:19.721Z,56.14
2023-05-04T01:40:20.734Z,58.49
2023-05-04T01:41:19.730Z,54.02
2023-05-04T01:42:19.782Z,54.80
2023-05-04T01:43:19.725Z,52.13
2023-05-04T01:44:19.691Z,57.91
2023-05-04T01:45:20.634Z,49.44
2023-05-04T01:46:19.707Z,51.12
2023-05-04T01:47:19.663Z,60.09
2023-05-04T01:48:19.683Z,59.47
2023-05-04T01:49:19.655Z,60.56
2023-05-04T01:50:19.633Z,55.06
2023-05-04T01:51:19.627Z,58.69
2023-05-04T01:52:19.629Z,50.72
2023-05-04T01:53:19.637Z,57.06
2023-05-04T01:54:19.622Z,56.88
2023-05-04T01:55:19.621Z,57.44
2023-05-04T01:56:19.601Z,55.66
2023-05-04T01:57:19.585Z,60.81
2023-05-04T01:58:19.580Z,51.90
2023-05-04T01:59:19.565Z,54.03
2023-05-04T02:00:19.562Z,51.66
2023-05-04T02:01:19.572Z,53.93
2023-05-04T02:02:19.535Z,55.25
2023-05-04T02:03:19.606Z,56.21
2023-05-04T02:04:19.529Z,59.26
2023-05-04T02:05:19.569Z,61.76
2023-05-04T02:06:19.508Z,55.75
2023-05-04T02:07:19.494Z,50.70
2023-05-04T02:08:19.552Z,53.62
2023-05-04T02:09:19.504Z,56.79
2023-05-04T02:10:19.488Z,56.38
2023-05-04T02:11:19.476Z,52.54
2023-05-04T02:12:19.484Z,55.27
2023-05-04T02:13:19.526Z,56.06
2023-05-04T02:14:19.461Z,56.53
2023-05-04T02:15:19.453Z,58.89
2023-05-04T02:16:19.500Z,57.74
2023-05-04T02:17:19.434Z,58.40
2023-05-04T02:18:19.438Z,55.93
2023-05-04T02:19:19.412Z,54.47
2023-05-04T02:20:19.423Z,58.16
2023-05-04T02:21:19.392Z,57.12
2023-05-04T02:22:19.400Z,55.06
2023-05-04T02:23:19.385Z,59.27
2023-05-04T02:24:19.375Z,54.32
2023-05-04T02:25:19.374Z,61.79
2023-05-04T02:26:19.365Z,55.36
2023-05-04T02:27:19.365Z,56.90
2023-05-04T02:28:19.372Z,55.81
2023-05-04T02:29:19.342Z,59.76
2023-05-04T02:30:19.344Z,55.10
2023-05-04T02:31:19.347Z,54.88
2023-05-04T02:32:19.316Z,59.72
2023-05-04T02:33:19.299Z,56.79
2023-05-04T02:34:19.317Z,56.46
2023-05-04T02:35:19.290Z,53.17
2023-05-04T02:36:19.275Z,60.10
2023-05-04T02:37:19.289Z,57.09
2023-05-04T02:38:19.271Z,61.70
2023-05-04T02:39:19.262Z,57.07
2023-05-04T02:40:19.261Z,57.05
2023-05-04T02:41:19.238Z,60.16
2023-05-04T02:42:19.348Z,58.27
2023-05-04T02:43:19.216Z,60.09
2023-05-04T02:44:19.213Z,59.26
2023-05-04T02:45:19.214Z,56.99
2023-05-04T02:46:19.229Z,56.72
2023-05-04T02:47:19.186Z,58.45
2023-05-04T02:48:19.194Z,57.99
2023-05-04T02:49:19.170Z,55.81
2023-05-04T02:50:19.175Z,59.84
2023-05-04T02:51:19.246Z,60.04
2023-05-04T02:52:19.164Z,57.03
2023-05-04T02:53:19.153Z,60.12
2023-05-04T02:54:19.145Z,61.77
2023-05-04T02:55:19.125Z,60.19
2023-05-04T02:56:19.154Z,59.29
2023-05-04T02:57:19.116Z,63.41
2023-05-04T02:58:19.131Z,54.82
2023-05-04T02:59:19.102Z,56.39
2023-05-04T03:00:19.116Z,54.73
2023-05-04T03:01:19.131Z,58.01
2023-05-04T03:02:19.079Z,58.24
2023-05-04T03:03:19.075Z,57.95
2023-05-04T03:04:19.071Z,56.42
2023-05-04T03:05:19.058Z,56.02
2023-05-04T03:06:19.042Z,60.39
2023-05-04T03:07:19.047Z,62.98
2023-05-04T03:08:19.033Z,59.27
2023-05-04T03:09:19.021Z,62.67
2023-05-04T03:10:19.026Z,62.66
2023-05-04T03:11:19.030Z,63.65
2023-05-04T03:12:19.005Z,60.36
2023-05-04T03:13:19.098Z,68.80
2023-05-04T03:14:18.996Z,72.16
2023-05-04T03:15:18.986Z,72.06
2023-05-04T03:16:18.974Z,63.65
2023-05-04T03:17:19.652Z,65.13
2023-05-04T03:18:18.960Z,61.39
2023-05-04T03:19:19.020Z,66.59
2023-05-04T03:20:18.939Z,66.70
2023-05-04T03:21:18.940Z,59.46
2023-05-04T03:22:18.955Z,58.86
2023-05-04T03:23:18.917Z,60.22
2023-05-04T03:24:18.909Z,63.28
2023-05-04T03:25:18.901Z,62.79
2023-05-04T03:26:18.893Z,60.59
2023-05-04T03:27:18.877Z,59.60
2023-05-04T03:28:18.882Z,58.85
2023-05-04T03:29:18.862Z,62.26
2023-05-04T03:30:18.865Z,62.68
2023-05-04T03:31:18.887Z,61.63
2023-05-04T03:32:18.834Z,64.31
2023-05-04T03:33:18.842Z,63.05
2023-05-04T03:34:18.845Z,61.79
2023-05-04T03:35:24.353Z,63.82
2023-05-04T03:36:20.805Z,66.48
2023-05-04T03:37:18.810Z,70.30
2023-05-04T03:38:18.800Z,66.94
2023-05-04T03:39:18.776Z,67.91
2023-05-04T03:40:18.791Z,61.76
2023-05-04T03:41:18.775Z,61.32
2023-05-04T03:42:18.755Z,62.60
2023-05-04T03:43:18.744Z,69.09
2023-05-04T03:44:18.735Z,69.34
2023-05-04T03:45:18.799Z,63.90
2023-05-04T03:46:18.856Z,60.91
2023-05-04T03:47:18.726Z,64.72
2023-05-04T03:48:18.715Z,61.37
2023-05-04T03:49:18.710Z,61.24
2023-05-04T03:50:21.258Z,64.29
2023-05-04T03:51:18.713Z,66.76
2023-05-04T03:52:18.684Z,64.61
2023-05-04T03:53:19.210Z,62.32
2023-05-04T03:54:18.670Z,59.42
2023-05-04T03:55:18.745Z,62.62
2023-05-04T03:56:18.659Z,67.77
2023-05-04T03:57:18.636Z,63.90
2023-05-04T03:58:18.622Z,63.31
2023-05-04T03:59:18.658Z,64.85
2023-05-04T04:00:18.641Z,62.91
2023-05-04T04:01:18.618Z,61.36
2023-05-04T04:02:18.846Z,63.12
2023-05-04T04:03:18.704Z,64.56
2023-05-04T04:04:18.640Z,64.52
2023-05-04T04:05:18.577Z,63.05
2023-05-04T04:06:18.610Z,65.26
2023-05-04T04:07:18.558Z,62.00
2023-05-04T04:08:18.582Z,62.76
2023-05-04T04:09:18.581Z,63.45
2023-05-04T04:10:18.525Z,60.05
2023-05-04T04:11:19.527Z,62.81
2023-05-04T04:12:18.538Z,64.18
2023-05-04T04:13:18.540Z,60.78
2023-05-04T04:14:19.159Z,62.20
2023-05-04T04:15:19.154Z,61.96
2023-05-04T04:16:18.806Z,63.72
2023-05-04T04:17:19.500Z,63.62
2023-05-04T04:18:18.517Z,64.64
2023-05-04T04:19:18.493Z,65.40
2023-05-04T04:20:18.471Z,65.44
2023-05-04T04:21:18.475Z,63.35
2023-05-04T04:22:18.638Z,62.11
2023-05-04T04:23:18.459Z,62.68
2023-05-04T04:24:18.439Z,64.43
2023-05-04T04:25:18.427Z,65.41
2023-05-04T04:26:18.417Z,62.05
2023-05-04T04:27:18.403Z,64.26
2023-05-04T04:28:18.405Z,63.96
2023-05-04T04:29:18.387Z,66.26
2023-05-04T04:30:18.434Z,65.09
2023-05-04T04:31:20.304Z,63.94
2023-05-04T04:32:18.370Z,67.12
2023-05-04T04:33:18.365Z,63.09
2023-05-04T04:34:18.354Z,64.47
2023-05-04T04:35:18.340Z,66.53
2023-05-04T04:36:18.338Z,67.17
2023-05-04T04:37:18.311Z,64.19
2023-05-04T04:38:18.321Z,67.82
2023-05-04T04:39:18.361Z,65.08
2023-05-04T04:40:19.309Z,66.12
2023-05-04T04:41:18.314Z,66.52
2023-05-04T04:42:18.280Z,65.51
2023-05-04T04:43:18.282Z,63.69
2023-05-04T04:44:18.262Z,67.75
2023-05-04T04:45:19.314Z,64.34
2023-05-04T04:46:19.321Z,62.64
2023-05-04T04:47:18.253Z,63.20
2023-05-04T04:48:18.238Z,64.93
2023-05-04T04:49:18.240Z,64.95
2023-05-04T04:50:18.254Z,65.02
2023-05-04T04:51:18.794Z,67.57
2023-05-04T04:52:18.225Z,67.89
2023-05-04T04:53:18.206Z,66.97
2023-05-04T04:54:18.205Z,66.79
2023-05-04T04:55:18.203Z,64.92
2023-05-04T04:56:18.172Z,64.72
2023-05-04T04:57:18.172Z,65.64
2023-05-04T04:58:19.733Z,63.67
2023-05-04T04:59:18.157Z,63.45
2023-05-04T05:00:18.152Z,65.06
2023-05-04T05:01:18.271Z,63.51
2023-05-04T05:02:18.180Z,65.71
2023-05-04T05:03:18.169Z,67.77
2023-05-04T05:04:18.146Z,65.46
2023-05-04T05:05:18.111Z,67.43
2023-05-04T05:06:18.170Z,68.07
2023-05-04T05:07:18.084Z,66.50
2023-05-04T05:08:18.084Z,65.48
2023-05-04T05:09:18.080Z,64.10
2023-05-04T05:10:18.061Z,65.33
2023-05-04T05:11:18.072Z,65.83
2023-05-04T05:12:18.052Z,66.59
2023-05-04T05:13:18.104Z,66.04
2023-05-04T05:14:18.055Z,65.28
2023-05-04T05:15:18.019Z,65.07
2023-05-04T05:16:18.015Z,65.98
2023-05-04T05:17:18.014Z,65.27
2023-05-04T05:18:17.994Z,68.20
2023-05-04T05:19:18.011Z,65.66
2023-05-04T05:20:17.977Z,66.50
2023-05-04T05:21:19.756Z,66.27
2023-05-04T05:22:18.750Z,65.85
2023-05-04T05:23:17.963Z,65.32
2023-05-04T05:24:17.946Z,67.00
2023-05-04T05:25:18.688Z,66.12
2023-05-04T05:26:18.687Z,67.11
2023-05-04T05:27:19.678Z,67.34
2023-05-04T05:28:19.670Z,63.77
2023-05-04T05:29:22.780Z,68.56
2023-05-04T05:30:18.673Z,67.69
2023-05-04T05:31:17.951Z,66.89
2023-05-04T05:32:17.889Z,68.61
2023-05-04T05:33:18.842Z,68.69
2023-05-04T05:34:17.867Z,65.43
2023-05-04T05:35:17.865Z,67.02
2023-05-04T05:36:17.865Z,65.94
2023-05-04T05:37:17.842Z,67.45
2023-05-04T05:38:17.889Z,68.32
2023-05-04T05:39:17.828Z,69.02
2023-05-04T05:40:17.814Z,65.98
2023-05-04T05:41:17.802Z,65.80
2023-05-04T05:42:17.801Z,66.87
2023-05-04T05:43:17.788Z,66.17
2023-05-04T05:44:17.786Z,68.39
2023-05-04T05:45:17.770Z,70.22
2023-05-04T05:46:18.809Z,67.35
2023-05-04T05:47:17.761Z,66.52
2023-05-04T05:48:17.750Z,64.66
2023-05-04T05:49:17.849Z,64.16
2023-05-04T05:50:17.735Z,64.88
2023-05-04T05:51:17.745Z,66.12
2023-05-04T05:52:17.745Z,68.12
2023-05-04T05:53:17.721Z,69.19
2023-05-04T05:54:17.717Z,67.59
2023-05-04T05:55:17.698Z,66.39
2023-05-04T05:56:17.693Z,68.87
2023-05-04T05:57:17.675Z,66.84
2023-05-04T05:58:17.677Z,64.79
2023-05-04T05:59:17.656Z,66.20
2023-05-04T06:00:18.665Z,67.17
2023-05-04T06:01:19.177Z,64.95
2023-05-04T06:02:17.686Z,67.14
2023-05-04T06:03:17.715Z,70.53
2023-05-04T06:04:17.771Z,64.09
2023-05-04T06:05:17.627Z,63.99
2023-05-04T06:06:17.606Z,63.93
2023-05-04T06:07:17.605Z,65.63
2023-05-04T06:08:17.624Z,65.85
2023-05-04T06:09:17.592Z,63.89
2023-05-04T06:10:17.589Z,64.65
2023-05-04T06:11:17.609Z,64.13
2023-05-04T06:12:17.563Z,64.18
2023-05-04T06:13:17.641Z,65.24
2023-05-04T06:14:17.568Z,67.05
2023-05-04T06:15:17.532Z,64.55
2023-05-04T06:16:17.613Z,66.23
2023-05-04T06:17:18.188Z,65.53
2023-05-04T06:18:17.555Z,67.26
2023-05-04T06:19:17.536Z,67.20
2023-05-04T06:20:17.497Z,66.15
2023-05-04T06:21:18.263Z,64.52
2023-05-04T06:22:17.476Z,66.20
2023-05-04T06:23:17.474Z,65.19
2023-05-04T06:24:17.485Z,64.92
2023-05-04T06:25:17.480Z,64.31
2023-05-04T06:26:17.477Z,64.24
2023-05-04T06:27:17.465Z,63.51
2023-05-04T06:28:17.488Z,64.67
2023-05-04T06:29:17.461Z,74.08
2023-05-04T06:30:17.438Z,64.43
2023-05-04T06:31:17.469Z,65.45
2023-05-04T06:32:17.455Z,64.42
2023-05-04T06:33:17.401Z,66.31
2023-05-04T06:34:17.398Z,64.13
2023-05-04T06:35:17.371Z,63.92
2023-05-04T06:36:18.186Z,65.69
2023-05-04T06:37:17.361Z,62.70
2023-05-04T06:38:17.364Z,66.83
2023-05-04T06:39:17.344Z,64.81
2023-05-04T06:40:17.363Z,64.34
2023-05-04T06:41:17.354Z,66.49
2023-05-04T06:42:17.452Z,64.96
2023-05-04T06:43:17.332Z,64.89
2023-05-04T06:44:17.306Z,64.91
2023-05-04T06:45:18.196Z,63.49
2023-05-04T06:46:17.373Z,63.07
2023-05-04T06:47:17.281Z,63.94
2023-05-04T06:48:17.279Z,64.31
2023-05-04T06:49:17.274Z,65.27
2023-05-04T06:50:17.268Z,63.78
2023-05-04T06:51:17.260Z,66.59
2023-05-04T06:52:17.253Z,65.11
2023-05-04T06:53:19.189Z,67.14
2023-05-04T06:54:17.242Z,66.01
2023-05-04T06:55:17.227Z,65.14
2023-05-04T06:56:18.194Z,64.25
2023-05-04T06:57:17.192Z,64.02
2023-05-04T06:58:17.205Z,65.08
2023-05-04T06:59:17.186Z,67.10
2023-05-04T07:00:17.183Z,66.56
2023-05-04T07:01:18.516Z,65.07
2023-05-04T07:02:18.232Z,66.35
2023-05-04T07:03:17.180Z,67.10
2023-05-04T07:04:17.196Z,64.58
2023-05-04T07:05:17.155Z,67.56
2023-05-04T07:06:17.697Z,63.35
2023-05-04T07:07:17.144Z,63.70
2023-05-04T07:08:17.120Z,65.64
2023-05-04T07:09:17.123Z,64.83
2023-05-04T07:10:17.092Z,65.46
2023-05-04T07:11:17.090Z,65.55
2023-05-04T07:12:17.077Z,63.28
2023-05-04T07:13:17.059Z,65.91
2023-05-04T07:14:17.079Z,63.73
2023-05-04T07:15:17.072Z,65.84
2023-05-04T07:16:17.093Z,63.93
2023-05-04T07:17:17.045Z,65.03
2023-05-04T07:18:17.034Z,66.12
2023-05-04T07:19:17.046Z,63.72
2023-05-04T07:20:21.301Z,66.59
2023-05-04T07:21:27.616Z,64.92
2023-05-04T07:22:18.989Z,63.96
2023-05-04T07:23:16.981Z,66.16
2023-05-04T07:24:17.031Z,64.20
2023-05-04T07:25:16.966Z,62.25
2023-05-04T07:26:16.960Z,63.81
2023-05-04T07:27:16.945Z,64.48
2023-05-04T07:28:17.780Z,63.87
2023-05-04T07:29:16.949Z,65.61
2023-05-04T07:30:19.790Z,64.92
2023-05-04T07:31:16.944Z,63.14
2023-05-04T07:32:17.011Z,65.06
2023-05-04T07:33:16.953Z,63.20
2023-05-04T07:34:16.893Z,62.77
2023-05-04T07:35:16.907Z,65.75
2023-05-04T07:36:17.879Z,66.26
2023-05-04T07:37:17.705Z,64.48
2023-05-04T07:38:19.793Z,67.26
2023-05-04T07:39:16.886Z,64.99
2023-05-04T07:40:16.846Z,63.79
2023-05-04T07:41:16.849Z,65.10
2023-05-04T07:42:16.830Z,63.83
2023-05-04T07:43:16.822Z,65.62
2023-05-04T07:44:16.812Z,62.66
2023-05-04T07:45:16.830Z,65.78
2023-05-04T07:46:17.025Z,63.29
2023-05-04T07:47:16.807Z,61.85
2023-05-04T07:48:17.981Z,64.70
2023-05-04T07:49:16.788Z,63.95
2023-05-04T07:50:16.766Z,63.69
2023-05-04T07:51:17.782Z,64.78
2023-05-04T07:52:16.761Z,65.29
2023-05-04T07:53:16.747Z,65.94
2023-05-04T07:54:16.734Z,65.21
2023-05-04T07:55:16.745Z,63.33
2023-05-04T07:56:16.741Z,65.32
2023-05-04T07:57:16.719Z,63.75
2023-05-04T07:58:17.231Z,63.50
2023-05-04T07:59:16.698Z,63.59
2023-05-04T08:00:17.314Z,65.86
2023-05-04T08:01:16.675Z,64.13
2023-05-04T08:02:16.723Z,64.80
2023-05-04T08:03:16.742Z,62.35
2023-05-04T08:04:16.658Z,61.28
2023-05-04T08:05:17.650Z,62.92
2023-05-04T08:06:16.636Z,64.68
2023-05-04T08:07:16.635Z,66.19
2023-05-04T08:08:16.811Z,64.69
2023-05-04T08:09:16.607Z,62.59
2023-05-04T08:10:16.598Z,61.52
2023-05-04T08:11:20.662Z,64.35
2023-05-04T08:12:17.585Z,64.04
2023-05-04T08:13:16.951Z,63.81
2023-05-04T08:14:16.579Z,62.89
2023-05-04T08:15:16.595Z,62.19
2023-05-04T08:16:16.569Z,61.46
2023-05-04T08:17:16.575Z,65.35
2023-05-04T08:18:16.599Z,62.65
2023-05-04T08:19:16.749Z,66.32
2023-05-04T08:20:16.529Z,63.20
2023-05-04T08:21:16.551Z,64.81
2023-05-04T08:22:16.580Z,63.73
2023-05-04T08:23:16.566Z,64.97
2023-05-04T08:24:16.498Z,65.68
2023-05-04T08:25:16.486Z,62.16
2023-05-04T08:26:16.505Z,63.61
2023-05-04T08:27:16.490Z,64.12
2023-05-04T08:28:16.468Z,61.60
2023-05-04T08:29:16.457Z,64.58
2023-05-04T08:30:16.447Z,66.86
2023-05-04T08:31:16.464Z,63.27
2023-05-04T08:32:18.329Z,63.99
2023-05-04T08:33:17.240Z,64.39
2023-05-04T08:34:16.559Z,63.00
2023-05-04T08:35:16.389Z,63.88
2023-05-04T08:36:17.467Z,64.77
2023-05-04T08:37:18.245Z,63.61
2023-05-04T08:38:16.389Z,65.16
2023-05-04T08:39:17.234Z,62.05
2023-05-04T08:40:18.247Z,64.85
2023-05-04T08:41:16.378Z,65.60
2023-05-04T08:42:16.379Z,64.32
2023-05-04T08:43:18.321Z,61.99
2023-05-04T08:44:16.334Z,63.30
2023-05-04T08:45:16.361Z,62.44
2023-05-04T08:46:18.296Z,63.99
2023-05-04T08:47:16.311Z,64.15
2023-05-04T08:48:19.262Z,60.81
2023-05-04T08:49:19.600Z,64.28
2023-05-04T08:50:17.295Z,62.97
2023-05-04T08:51:18.266Z,61.75
2023-05-04T08:52:16.338Z,66.52
2023-05-04T08:53:16.331Z,64.85
2023-05-04T08:54:16.259Z,62.31
2023-05-04T08:55:16.274Z,63.71
2023-05-04T08:56:16.254Z,63.04
2023-05-04T08:57:16.270Z,63.23
2023-05-04T08:58:16.219Z,63.60
2023-05-04T08:59:16.224Z,64.22
2023-05-04T09:00:16.825Z,63.81
2023-05-04T09:01:16.299Z,63.84
2023-05-04T09:02:16.198Z,66.09
2023-05-04T09:03:16.254Z,64.27
2023-05-04T09:04:16.187Z,61.54
2023-05-04T09:05:16.188Z,63.63
2023-05-04T09:06:16.223Z,65.62
2023-05-04T09:07:16.191Z,65.86
2023-05-04T09:08:16.172Z,63.91
2023-05-04T09:09:16.150Z,64.50
2023-05-04T09:10:16.124Z,64.24
2023-05-04T09:11:16.835Z,63.51
2023-05-04T09:12:16.112Z,62.58
2023-05-04T09:13:16.159Z,65.33
2023-05-04T09:14:16.101Z,62.81
2023-05-04T09:15:16.083Z,64.09
2023-05-04T09:16:18.807Z,62.85
2023-05-04T09:17:17.344Z,63.15
2023-05-04T09:18:18.846Z,62.38
2023-05-04T09:19:16.058Z,62.19
2023-05-04T09:20:16.060Z,62.38
2023-05-04T09:21:16.039Z,65.76
2023-05-04T09:22:16.056Z,63.04
2023-05-04T09:23:16.034Z,64.89
2023-05-04T09:24:16.707Z,62.51
2023-05-04T09:25:16.015Z,62.97
2023-05-04T09:26:15.998Z,63.96
2023-05-04T09:27:16.025Z,64.53
2023-05-04T09:28:16.003Z,66.19
2023-05-04T09:29:16.009Z,63.65
2023-05-04T09:30:15.974Z,66.08
2023-05-04T09:31:16.979Z,63.18
2023-05-04T09:32:15.956Z,62.48
2023-05-04T09:33:15.955Z,64.27
2023-05-04T09:34:15.962Z,62.91
2023-05-04T09:35:25.662Z,63.11
2023-05-04T09:36:17.933Z,68.97
2023-05-04T09:37:15.944Z,63.03
2023-05-04T09:38:15.911Z,64.66
2023-05-04T09:39:15.900Z,62.23
2023-05-04T09:40:15.899Z,62.16
2023-05-04T09:41:15.887Z,66.28
2023-05-04T09:42:15.870Z,63.37
2023-05-04T09:43:15.872Z,61.61
2023-05-04T09:44:15.850Z,62.35
2023-05-04T09:45:15.853Z,62.69
2023-05-04T09:46:16.773Z,62.60
2023-05-04T09:47:15.835Z,63.49
2023-05-04T09:48:15.834Z,62.72
2023-05-04T09:49:15.815Z,64.80
2023-05-04T09:50:16.993Z,64.72
2023-05-04T09:51:15.804Z,63.50
2023-05-04T09:52:15.794Z,64.46
2023-05-04T09:53:15.777Z,64.02
2023-05-04T09:54:15.925Z,65.47
2023-05-04T09:55:16.341Z,64.36
2023-05-04T09:58:24.060Z,63.65
2023-05-04T09:59:23.214Z,65.74
2023-05-04T10:00:23.210Z,64.68
2023-05-04T10:01:23.315Z,65.79
2023-05-04T10:02:23.720Z,63.84
2023-05-04T10:03:23.237Z,64.80
2023-05-04T10:04:23.189Z,66.83
2023-05-04T10:05:25.274Z,65.58
2023-05-04T10:06:24.304Z,62.63
2023-05-04T10:07:24.227Z,64.64
2023-05-04T10:08:25.072Z,66.25
2023-05-04T10:09:24.229Z,63.28
2023-05-04T10:10:24.236Z,66.43
2023-05-04T10:11:26.134Z,65.03
2023-05-04T10:12:24.195Z,63.52
2023-05-04T10:13:24.201Z,62.54
2023-05-04T10:14:24.192Z,62.89
2023-05-04T10:15:24.276Z,63.30
2023-05-04T10:16:24.726Z,65.03
2023-05-04T10:17:30.091Z,62.87
2023-05-04T10:18:26.745Z,64.35
2023-05-04T10:19:24.166Z,63.42
2023-05-04T10:20:24.213Z,68.34
2023-05-04T10:21:24.198Z,64.83
2023-05-04T10:22:24.149Z,64.15
2023-05-04T10:23:24.215Z,68.58
2023-05-04T10:24:24.180Z,64.64
2023-05-04T10:25:24.182Z,61.77
2023-05-04T10:26:24.171Z,64.97
2023-05-04T10:27:24.155Z,64.16
2023-05-04T10:28:24.133Z,66.47
2023-05-04T10:29:24.199Z,64.25
2023-05-04T10:30:24.791Z,65.80
2023-05-04T10:31:24.144Z,64.32
2023-05-04T10:32:24.104Z,62.48
2023-05-04T10:33:24.125Z,64.16
2023-05-04T10:34:24.142Z,63.20
2023-05-04T10:35:24.025Z,64.59
2023-05-04T10:36:24.048Z,65.58
2023-05-04T10:37:24.103Z,67.12
2023-05-04T10:38:24.009Z,64.28
2023-05-04T10:39:24.030Z,60.51
2023-05-04T10:40:24.668Z,63.75
2023-05-04T10:41:24.244Z,64.00
2023-05-04T10:42:24.567Z,64.39
2023-05-04T10:43:23.985Z,63.44
2023-05-04T10:44:24.692Z,64.03
2023-05-04T10:45:23.979Z,61.36
2023-05-04T10:46:24.002Z,62.40
2023-05-04T10:47:25.723Z,64.14
2023-05-04T10:48:24.033Z,63.97
2023-05-04T10:49:23.903Z,62.01
2023-05-04T10:50:23.904Z,62.77
2023-05-04T10:51:25.287Z,65.44
2023-05-04T10:52:23.895Z,64.78
2023-05-04T10:53:23.895Z,63.88
2023-05-04T10:54:23.942Z,63.60
2023-05-04T10:55:25.724Z,62.26
2023-05-04T10:56:23.946Z,66.48
2023-05-04T10:57:24.535Z,65.00
2023-05-04T10:58:23.850Z,63.71
2023-05-04T10:59:23.862Z,64.50
2023-05-04T11:00:23.952Z,64.76
2023-05-04T11:01:23.982Z,63.83
2023-05-04T11:02:23.997Z,64.87
2023-05-04T11:03:25.006Z,67.97
2023-05-04T11:04:23.804Z,64.38
2023-05-04T11:05:23.878Z,66.17
2023-05-04T11:06:24.334Z,67.44
2023-05-04T11:07:24.231Z,65.09
2023-05-04T11:08:23.778Z,64.58
2023-05-04T11:09:23.817Z,66.28
2023-05-04T11:10:23.736Z,62.53
2023-05-04T11:11:24.599Z,64.28
2023-05-04T11:12:23.753Z,64.18
2023-05-04T11:13:23.909Z,63.95
2023-05-04T11:14:23.744Z,64.38
2023-05-04T11:15:23.734Z,62.67
2023-05-04T11:16:23.737Z,64.22
2023-05-04T11:17:28.247Z,65.59
2023-05-04T11:18:26.730Z,64.71
2023-05-04T11:20:25.634Z,69.35
2023-05-04T11:21:23.669Z,65.48
2023-05-04T11:22:23.741Z,66.21
2023-05-04T11:23:23.664Z,64.42
2023-05-04T11:24:23.671Z,64.92
2023-05-04T11:25:23.689Z,65.90
2023-05-04T11:26:23.619Z,65.85
2023-05-04T11:27:23.654Z,62.54
2023-05-04T11:28:24.616Z,62.74
2023-05-04T11:29:23.619Z,63.88
2023-05-04T11:30:24.579Z,64.08
2023-05-04T11:31:23.669Z,63.54
2023-05-04T11:32:23.611Z,63.77
2023-05-04T11:33:23.634Z,63.21
2023-05-04T11:34:23.668Z,62.60
2023-05-04T11:35:23.579Z,62.14
2023-05-04T11:36:23.572Z,62.28
2023-05-04T11:37:23.536Z,64.55
2023-05-04T11:38:23.584Z,67.45
2023-05-04T11:39:23.537Z,66.31
2023-05-04T11:40:23.570Z,64.32
2023-05-04T11:41:24.304Z,64.78
2023-05-04T11:42:57.257Z,64.22
2023-05-04T11:43:25.117Z,63.06
2023-05-04T11:44:23.457Z,62.65
2023-05-04T11:45:23.478Z,62.41
2023-05-04T11:46:23.531Z,63.04
2023-05-04T11:47:27.184Z,64.17
2023-05-04T11:48:23.450Z,63.26
2023-05-04T11:49:23.448Z,63.89
2023-05-04T11:50:27.130Z,64.28
2023-05-04T11:51:27.119Z,64.19
2023-05-04T11:52:51.150Z,61.72
2023-05-04T11:53:23.446Z,63.03
2023-05-04T11:54:23.413Z,63.56
2023-05-04T11:55:24.147Z,65.58
2023-05-04T11:56:23.384Z,65.78
2023-05-04T11:57:23.395Z,65.48
2023-05-04T11:58:23.368Z,64.66
2023-05-04T11:59:24.430Z,61.58
2023-05-04T12:00:24.230Z,64.06
2023-05-04T12:01:23.368Z,66.60
2023-05-04T12:02:56.363Z,66.84
2023-05-04T12:03:24.524Z,64.09
2023-05-04T12:04:23.407Z,63.48
2023-05-04T12:05:23.329Z,63.95
2023-05-04T12:06:23.304Z,64.39
2023-05-04T12:07:24.273Z,63.08
2023-05-04T12:08:23.355Z,64.97
2023-05-04T12:09:23.281Z,64.84
2023-05-04T12:10:23.294Z,62.98
2023-05-04T12:11:23.283Z,68.28
2023-05-04T12:12:23.245Z,67.20
2023-05-04T12:13:23.313Z,62.48
2023-05-04T12:14:23.233Z,62.90
2023-05-04T12:15:23.224Z,62.22
2023-05-04T12:16:23.301Z,64.20
2023-05-04T12:17:23.247Z,64.05
2023-05-04T12:18:23.207Z,66.16
2023-05-04T12:19:24.190Z,64.51
2023-05-04T12:20:23.177Z,65.57
2023-05-04T12:21:23.186Z,65.27
2023-05-04T12:22:23.167Z,65.62
2023-05-04T12:23:23.189Z,66.24
2023-05-04T12:24:23.164Z,62.90
2023-05-04T12:25:23.143Z,62.56
2023-05-04T12:26:23.140Z,65.28
2023-05-04T12:27:23.140Z,64.69
2023-05-04T12:28:23.144Z,66.94
2023-05-04T12:29:23.136Z,65.75
2023-05-04T12:30:23.133Z,65.70
2023-05-04T12:31:25.277Z,65.17
2023-05-04T12:32:24.149Z,65.88
2023-05-04T12:33:23.169Z,64.51
2023-05-04T12:34:23.084Z,63.47
2023-05-04T12:35:23.077Z,64.95
2023-05-04T12:36:23.072Z,64.64
2023-05-04T12:37:24.961Z,64.51
2023-05-04T12:38:24.038Z,64.64
2023-05-04T12:39:23.698Z,65.30
2023-05-04T12:40:28.803Z,62.79
2023-05-04T12:41:25.031Z,62.85
2023-05-04T12:42:23.005Z,64.27
2023-05-04T12:43:23.041Z,62.30
2023-05-04T12:44:23.017Z,63.04
2023-05-04T12:45:22.996Z,63.07
2023-05-04T12:46:23.030Z,64.11
2023-05-04T12:47:23.080Z,62.67
2023-05-04T12:48:23.000Z,63.46
2023-05-04T12:49:24.727Z,63.63
2023-05-04T12:50:23.955Z,63.40
2023-05-04T12:51:23.698Z,64.12
2023-05-04T12:52:22.946Z,63.76
2023-05-04T12:53:24.731Z,64.05
2023-05-04T12:54:23.928Z,66.20
2023-05-04T12:55:25.284Z,62.44
2023-05-04T12:56:23.919Z,66.77
2023-05-04T12:57:23.720Z,66.54